sensor_id;sensor_type;location;lat;lon;timestamp;P1;durP1;ratioP1;P2;durP2;ratioP2
9418;SDS011;4748;50.802;7.132;2023-05-10T00:01:24;0.50;;;0.50;;
9418;SDS011;4748;50.802;7.132;2023-05-10T00:03:50;0.60;;;0.60;;
9418;SDS011;4748;50.802;7.132;2023-05-10T00:06:15;0.60;;;0.60;;
9418;SDS011;4748;50.802;7.132;2023-05-10T00:08:41;1.10;;;0.60;;
9418;SDS011;4748;50.802;7.132;2023-05-10T00:11:06;4.43;;;1.13;;
9418;SDS011;4748;50.802;7.132;2023-05-10T00:13:31;4.93;;;0.90;;
9418;SDS011;4748;50.802;7.132;2023-05-10T00:15:57;13.80;;;0.90;;
9418;SDS011;4748;50.802;7.132;2023-05-10T00:18:22;0.63;;;0.63;;
9418;SDS011;4748;50.802;7.132;2023-05-10T00:20:47;0.80;;;0.80;;
9418;SDS011;4748;50.802;7.132;2023-05-10T00:23:13;0.80;;;0.80;;
9418;SDS011;4748;50.802;7.132;2023-05-10T00:25:39;0.63;;;0.60;;
9418;SDS011;4748;50.802;7.132;2023-05-10T00:28:04;0.63;;;0.63;;
9418;SDS011;4748;50.802;7.132;2023-05-10T00:30:29;0.60;;;0.60;;
9418;SDS011;4748;50.802;7.132;2023-05-10T00:32:58;0.60;;;0.60;;
9418;SDS011;4748;50.802;7.132;2023-05-10T00:35:23;0.50;;;0.50;;
9418;SDS011;4748;50.802;7.132;2023-05-10T00:37:48;0.47;;;0.47;;
9418;SDS011;4748;50.802;7.132;2023-05-10T00:40:14;0.40;;;0.40;;
9418;SDS011;4748;50.802;7.132;2023-05-10T00:42:39;0.57;;;0.50;;
9418;SDS011;4748;50.802;7.132;2023-05-10T00:45:05;0.80;;;0.80;;
9418;SDS011;4748;50.802;7.132;2023-05-10T00:47:32;0.70;;;0.63;;
9418;SDS011;4748;50.802;7.132;2023-05-10T00:49:59;0.40;;;0.40;;
9418;SDS011;4748;50.802;7.132;2023-05-10T00:52:26;0.70;;;0.70;;
9418;SDS011;4748;50.802;7.132;2023-05-10T00:54:53;0.40;;;0.40;;
9418;SDS011;4748;50.802;7.132;2023-05-10T00:57:19;0.60;;;0.60;;
9418;SDS011;4748;50.802;7.132;2023-05-10T00:59:46;0.43;;;0.43;;
9418;SDS011;4748;50.802;7.132;2023-05-10T01:02:11;0.67;;;0.67;;
9418;SDS011;4748;50.802;7.132;2023-05-10T01:04:38;0.90;;;0.90;;
9418;SDS011;4748;50.802;7.132;2023-05-10T01:07:04;0.60;;;0.60;;
9418;SDS011;4748;50.802;7.132;2023-05-10T01:09:30;0.50;;;0.50;;
9418;SDS011;4748;50.802;7.132;2023-05-10T01:11:56;0.67;;;0.67;;
9418;SDS011;4748;50.802;7.132;2023-05-10T01:14:22;0.80;;;0.80;;
9418;SDS011;4748;50.802;7.132;2023-05-10T01:16:48;0.53;;;0.53;;
9418;SDS011;4748;50.802;7.132;2023-05-10T01:19:24;0.77;;;0.77;;
9418;SDS011;4748;50.802;7.132;2023-05-10T01:30:35;0.60;;;0.60;;
9418;SDS011;4748;50.802;7.132;2023-05-10T01:36:19;1.20;;;0.57;;
9418;SDS011;4748;50.802;7.132;2023-05-10T01:47:14;1.03;;;0.53;;
9418;SDS011;4748;50.802;7.132;2023-05-10T01:49:52;0.93;;;0.50;;
9418;SDS011;4748;50.802;7.132;2023-05-10T01:52:32;0.50;;;0.50;;
9418;SDS011;4748;50.802;7.132;2023-05-10T01:55:04;0.40;;;0.40;;
9418;SDS011;4748;50.802;7.132;2023-05-10T01:57:42;0.50;;;0.50;;
9418;SDS011;4748;50.802;7.132;2023-05-10T02:00:11;0.30;;;0.30;;
9418;SDS011;4748;50.802;7.132;2023-05-10T02:02:39;3.97;;;0.30;;
9418;SDS011;4748;50.802;7.132;2023-05-10T02:05:07;0.43;;;0.30;;
9418;SDS011;4748;50.802;7.132;2023-05-10T02:07:34;0.30;;;0.30;;
9418;SDS011;4748;50.802;7.132;2023-05-10T02:10:04;0.20;;;0.20;;
9418;SDS011;4748;50.802;7.132;2023-05-10T02:12:34;0.30;;;0.30;;
9418;SDS011;4748;50.802;7.132;2023-05-10T02:15:01;0.30;;;0.30;;
9418;SDS011;4748;50.802;7.132;2023-05-10T02:17:30;0.20;;;0.20;;
9418;SDS011;4748;50.802;7.132;2023-05-10T02:19:56;0.30;;;0.30;;
9418;SDS011;4748;50.802;7.132;2023-05-10T02:22:25;0.40;;;0.40;;
9418;SDS011;4748;50.802;7.132;2023-05-10T02:24:52;1.23;;;0.20;;
9418;SDS011;4748;50.802;7.132;2023-05-10T02:27:20;0.40;;;0.40;;
9418;SDS011;4748;50.802;7.132;2023-05-10T02:29:49;0.40;;;0.20;;
9418;SDS011;4748;50.802;7.132;2023-05-10T02:32:16;0.47;;;0.47;;
9418;SDS011;4748;50.802;7.132;2023-05-10T02:34:42;0.87;;;0.40;;
9418;SDS011;4748;50.802;7.132;2023-05-10T02:37:11;0.40;;;0.40;;
9418;SDS011;4748;50.802;7.132;2023-05-10T02:39:38;0.57;;;0.20;;
9418;SDS011;4748;50.802;7.132;2023-05-10T02:42:08;1.60;;;0.30;;
9418;SDS011;4748;50.802;7.132;2023-05-10T02:44:40;0.20;;;0.20;;
9418;SDS011;4748;50.802;7.132;2023-05-10T02:47:06;0.20;;;0.20;;
9418;SDS011;4748;50.802;7.132;2023-05-10T02:49:32;0.77;;;0.43;;
9418;SDS011;4748;50.802;7.132;2023-05-10T02:51:58;3.03;;;0.40;;
9418;SDS011;4748;50.802;7.132;2023-05-10T02:54:29;0.80;;;0.77;;
9418;SDS011;4748;50.802;7.132;2023-05-10T02:56:57;0.40;;;0.40;;
9418;SDS011;4748;50.802;7.132;2023-05-10T02:59:27;0.43;;;0.43;;
9418;SDS011;4748;50.802;7.132;2023-05-10T03:01:53;2.77;;;0.50;;
9418;SDS011;4748;50.802;7.132;2023-05-10T03:04:18;0.70;;;0.70;;
9418;SDS011;4748;50.802;7.132;2023-05-10T03:06:44;3.63;;;0.63;;
9418;SDS011;4748;50.802;7.132;2023-05-10T03:09:10;0.60;;;0.60;;
9418;SDS011;4748;50.802;7.132;2023-05-10T03:12:23;0.77;;;0.70;;
9418;SDS011;4748;50.802;7.132;2023-05-10T03:19:58;1.13;;;1.03;;
9418;SDS011;4748;50.802;7.132;2023-05-10T03:22:40;1.63;;;0.97;;
9418;SDS011;4748;50.802;7.132;2023-05-10T03:25:12;1.20;;;1.10;;
9418;SDS011;4748;50.802;7.132;2023-05-10T03:27:41;1.10;;;1.10;;
9418;SDS011;4748;50.802;7.132;2023-05-10T03:30:08;1.77;;;1.53;;
9418;SDS011;4748;50.802;7.132;2023-05-10T03:32:36;5.53;;;1.27;;
9418;SDS011;4748;50.802;7.132;2023-05-10T03:35:08;1.70;;;1.60;;
9418;SDS011;4748;50.802;7.132;2023-05-10T03:37:37;1.47;;;1.07;;
9418;SDS011;4748;50.802;7.132;2023-05-10T03:40:02;2.20;;;1.40;;
9418;SDS011;4748;50.802;7.132;2023-05-10T03:42:28;1.87;;;1.30;;
9418;SDS011;4748;50.802;7.132;2023-05-10T03:44:54;2.17;;;1.60;;
9418;SDS011;4748;50.802;7.132;2023-05-10T03:47:19;1.17;;;1.07;;
9418;SDS011;4748;50.802;7.132;2023-05-10T03:49:46;1.60;;;1.50;;
9418;SDS011;4748;50.802;7.132;2023-05-10T03:52:11;4.00;;;1.33;;
9418;SDS011;4748;50.802;7.132;2023-05-10T03:54:37;1.73;;;1.63;;
9418;SDS011;4748;50.802;7.132;2023-05-10T03:57:02;5.63;;;1.83;;
9418;SDS011;4748;50.802;7.132;2023-05-10T03:59:29;3.77;;;1.87;;
9418;SDS011;4748;50.802;7.132;2023-05-10T04:01:54;3.67;;;1.80;;
9418;SDS011;4748;50.802;7.132;2023-05-10T04:04:20;1.93;;;1.83;;
9418;SDS011;4748;50.802;7.132;2023-05-10T04:06:46;1.93;;;1.70;;
9418;SDS011;4748;50.802;7.132;2023-05-10T04:09:11;2.53;;;2.20;;
9418;SDS011;4748;50.802;7.132;2023-05-10T04:11:37;2.70;;;2.07;;
9418;SDS011;4748;50.802;7.132;2023-05-10T04:14:02;2.63;;;2.20;;
9418;SDS011;4748;50.802;7.132;2023-05-10T04:16:28;7.70;;;2.73;;
9418;SDS011;4748;50.802;7.132;2023-05-10T04:18:54;4.10;;;1.73;;
9418;SDS011;4748;50.802;7.132;2023-05-10T04:21:20;2.87;;;2.53;;
9418;SDS011;4748;50.802;7.132;2023-05-10T04:23:45;4.77;;;2.23;;
9418;SDS011;4748;50.802;7.132;2023-05-10T04:26:10;4.03;;;2.37;;
9418;SDS011;4748;50.802;7.132;2023-05-10T04:28:36;3.47;;;2.27;;
9418;SDS011;4748;50.802;7.132;2023-05-10T04:31:05;5.10;;;3.20;;
9418;SDS011;4748;50.802;7.132;2023-05-10T04:33:31;14.67;;;3.77;;
9418;SDS011;4748;50.802;7.132;2023-05-10T04:35:58;2.90;;;2.57;;
9418;SDS011;4748;50.802;7.132;2023-05-10T04:38:24;5.10;;;3.17;;
9418;SDS011;4748;50.802;7.132;2023-05-10T04:40:50;4.10;;;3.43;;
9418;SDS011;4748;50.802;7.132;2023-05-10T04:43:15;4.27;;;3.07;;
9418;SDS011;4748;50.802;7.132;2023-05-10T04:45:41;6.27;;;2.90;;
9418;SDS011;4748;50.802;7.132;2023-05-10T04:48:06;5.40;;;3.50;;
9418;SDS011;4748;50.802;7.132;2023-05-10T04:50:32;5.57;;;3.50;;
9418;SDS011;4748;50.802;7.132;2023-05-10T04:52:57;4.10;;;3.33;;
9418;SDS011;4748;50.802;7.132;2023-05-10T04:55:23;6.50;;;3.10;;
9418;SDS011;4748;50.802;7.132;2023-05-10T04:57:48;6.70;;;3.23;;
9418;SDS011;4748;50.802;7.132;2023-05-10T05:00:14;6.70;;;3.77;;
9418;SDS011;4748;50.802;7.132;2023-05-10T05:02:43;4.80;;;3.70;;
9418;SDS011;4748;50.802;7.132;2023-05-10T05:05:10;6.90;;;4.00;;
9418;SDS011;4748;50.802;7.132;2023-05-10T05:07:35;8.53;;;3.93;;
9418;SDS011;4748;50.802;7.132;2023-05-10T05:10:01;13.33;;;5.13;;
9418;SDS011;4748;50.802;7.132;2023-05-10T05:12:26;7.80;;;4.43;;
9418;SDS011;4748;50.802;7.132;2023-05-10T05:14:53;5.27;;;4.20;;
9418;SDS011;4748;50.802;7.132;2023-05-10T05:17:18;8.70;;;5.17;;
9418;SDS011;4748;50.802;7.132;2023-05-10T05:19:44;5.37;;;3.47;;
9418;SDS011;4748;50.802;7.132;2023-05-10T05:22:13;9.87;;;4.10;;
9418;SDS011;4748;50.802;7.132;2023-05-10T05:24:38;10.43;;;4.83;;
9418;SDS011;4748;50.802;7.132;2023-05-10T05:27:03;8.00;;;4.13;;
9418;SDS011;4748;50.802;7.132;2023-05-10T05:29:29;7.17;;;4.30;;
9418;SDS011;4748;50.802;7.132;2023-05-10T05:31:54;5.03;;;4.50;;
9418;SDS011;4748;50.802;7.132;2023-05-10T05:34:20;11.50;;;5.17;;
9418;SDS011;4748;50.802;7.132;2023-05-10T05:36:47;11.70;;;4.27;;
9418;SDS011;4748;50.802;7.132;2023-05-10T05:39:13;9.70;;;5.00;;
9418;SDS011;4748;50.802;7.132;2023-05-10T05:41:38;7.27;;;5.40;;
9418;SDS011;4748;50.802;7.132;2023-05-10T05:44:04;6.97;;;5.07;;
9418;SDS011;4748;50.802;7.132;2023-05-10T05:46:29;7.17;;;4.90;;
9418;SDS011;4748;50.802;7.132;2023-05-10T05:48:54;5.10;;;3.80;;
9418;SDS011;4748;50.802;7.132;2023-05-10T05:51:20;8.07;;;4.60;;
9418;SDS011;4748;50.802;7.132;2023-05-10T05:53:45;6.87;;;4.37;;
9418;SDS011;4748;50.802;7.132;2023-05-10T05:56:11;8.53;;;5.40;;
9418;SDS011;4748;50.802;7.132;2023-05-10T05:58:36;12.83;;;5.07;;
9418;SDS011;4748;50.802;7.132;2023-05-10T06:01:01;6.60;;;4.53;;
9418;SDS011;4748;50.802;7.132;2023-05-10T06:03:27;8.63;;;4.80;;
9418;SDS011;4748;50.802;7.132;2023-05-10T06:05:52;9.77;;;5.07;;
9418;SDS011;4748;50.802;7.132;2023-05-10T06:08:17;5.30;;;4.10;;
9418;SDS011;4748;50.802;7.132;2023-05-10T06:10:43;7.60;;;4.10;;
9418;SDS011;4748;50.802;7.132;2023-05-10T06:13:09;14.73;;;5.37;;
9418;SDS011;4748;50.802;7.132;2023-05-10T06:15:34;13.77;;;5.33;;
9418;SDS011;4748;50.802;7.132;2023-05-10T06:18:00;6.60;;;4.17;;
9418;SDS011;4748;50.802;7.132;2023-05-10T06:20:25;9.10;;;5.90;;
9418;SDS011;4748;50.802;7.132;2023-05-10T06:22:51;7.67;;;5.07;;
9418;SDS011;4748;50.802;7.132;2023-05-10T06:25:16;6.53;;;4.67;;
9418;SDS011;4748;50.802;7.132;2023-05-10T06:27:43;8.87;;;5.10;;
9418;SDS011;4748;50.802;7.132;2023-05-10T06:40:13;7.03;;;4.23;;
9418;SDS011;4748;50.802;7.132;2023-05-10T06:42:39;6.50;;;4.50;;
9418;SDS011;4748;50.802;7.132;2023-05-10T06:45:04;6.77;;;5.00;;
9418;SDS011;4748;50.802;7.132;2023-05-10T06:50:06;8.97;;;4.23;;
9418;SDS011;4748;50.802;7.132;2023-05-10T06:52:36;8.13;;;4.57;;
9418;SDS011;4748;50.802;7.132;2023-05-10T06:55:02;4.00;;;3.63;;
9418;SDS011;4748;50.802;7.132;2023-05-10T06:57:28;4.67;;;4.20;;
9418;SDS011;4748;50.802;7.132;2023-05-10T06:59:54;7.37;;;3.67;;
9418;SDS011;4748;50.802;7.132;2023-05-10T07:02:21;3.90;;;3.03;;
9418;SDS011;4748;50.802;7.132;2023-05-10T07:04:46;8.67;;;3.83;;
9418;SDS011;4748;50.802;7.132;2023-05-10T07:07:12;3.67;;;2.70;;
9418;SDS011;4748;50.802;7.132;2023-05-10T07:09:38;6.57;;;2.80;;
9418;SDS011;4748;50.802;7.132;2023-05-10T07:12:03;4.10;;;2.60;;
9418;SDS011;4748;50.802;7.132;2023-05-10T07:14:29;3.57;;;2.00;;
9418;SDS011;4748;50.802;7.132;2023-05-10T07:16:54;2.03;;;1.57;;
9418;SDS011;4748;50.802;7.132;2023-05-10T07:19:20;2.00;;;1.40;;
9418;SDS011;4748;50.802;7.132;2023-05-10T07:21:45;2.87;;;1.90;;
9418;SDS011;4748;50.802;7.132;2023-05-10T07:24:10;2.40;;;1.23;;
9418;SDS011;4748;50.802;7.132;2023-05-10T07:26:36;1.67;;;1.50;;
9418;SDS011;4748;50.802;7.132;2023-05-10T07:29:01;3.37;;;1.23;;
9418;SDS011;4748;50.802;7.132;2023-05-10T07:31:27;1.50;;;1.07;;
9418;SDS011;4748;50.802;7.132;2023-05-10T07:33:52;1.60;;;1.30;;
9418;SDS011;4748;50.802;7.132;2023-05-10T07:36:18;3.93;;;1.50;;
9418;SDS011;4748;50.802;7.132;2023-05-10T07:38:43;1.50;;;1.40;;
9418;SDS011;4748;50.802;7.132;2023-05-10T07:41:11;1.40;;;1.30;;
9418;SDS011;4748;50.802;7.132;2023-05-10T07:43:37;1.63;;;1.30;;
9418;SDS011;4748;50.802;7.132;2023-05-10T07:46:02;5.20;;;1.40;;
9418;SDS011;4748;50.802;7.132;2023-05-10T07:48:27;1.50;;;1.20;;
9418;SDS011;4748;50.802;7.132;2023-05-10T07:50:53;0.70;;;0.70;;
9418;SDS011;4748;50.802;7.132;2023-05-10T07:53:18;3.73;;;1.40;;
9418;SDS011;4748;50.802;7.132;2023-05-10T07:55:44;10.70;;;1.20;;
9418;SDS011;4748;50.802;7.132;2023-05-10T07:58:15;1.27;;;1.10;;
9418;SDS011;4748;50.802;7.132;2023-05-10T08:00:40;1.23;;;1.00;;
9418;SDS011;4748;50.802;7.132;2023-05-10T08:03:06;1.60;;;1.27;;
9418;SDS011;4748;50.802;7.132;2023-05-10T08:05:31;4.17;;;1.30;;
9418;SDS011;4748;50.802;7.132;2023-05-10T08:07:56;1.20;;;1.10;;
9418;SDS011;4748;50.802;7.132;2023-05-10T08:10:22;1.60;;;1.50;;
9418;SDS011;4748;50.802;7.132;2023-05-10T08:12:47;1.40;;;1.30;;
9418;SDS011;4748;50.802;7.132;2023-05-10T08:15:13;1.50;;;1.40;;
9418;SDS011;4748;50.802;7.132;2023-05-10T08:17:38;1.30;;;1.00;;
9418;SDS011;4748;50.802;7.132;2023-05-10T08:20:04;1.57;;;1.47;;
9418;SDS011;4748;50.802;7.132;2023-05-10T08:22:30;1.83;;;1.03;;
9418;SDS011;4748;50.802;7.132;2023-05-10T08:24:55;1.87;;;1.70;;
9418;SDS011;4748;50.802;7.132;2023-05-10T08:27:20;1.10;;;1.10;;
9418;SDS011;4748;50.802;7.132;2023-05-10T08:29:46;2.73;;;0.90;;
9418;SDS011;4748;50.802;7.132;2023-05-10T08:32:12;1.20;;;1.17;;
9418;SDS011;4748;50.802;7.132;2023-05-10T08:34:37;1.30;;;1.30;;
9418;SDS011;4748;50.802;7.132;2023-05-10T08:37:03;2.60;;;1.03;;
9418;SDS011;4748;50.802;7.132;2023-05-10T08:39:28;1.77;;;1.30;;
9418;SDS011;4748;50.802;7.132;2023-05-10T08:41:54;2.30;;;1.53;;
9418;SDS011;4748;50.802;7.132;2023-05-10T08:44:24;2.33;;;1.20;;
9418;SDS011;4748;50.802;7.132;2023-05-10T08:46:50;2.17;;;1.37;;
9418;SDS011;4748;50.802;7.132;2023-05-10T08:49:19;1.57;;;1.10;;
9418;SDS011;4748;50.802;7.132;2023-05-10T08:51:47;1.40;;;1.30;;
9418;SDS011;4748;50.802;7.132;2023-05-10T08:54:16;2.40;;;0.70;;
9418;SDS011;4748;50.802;7.132;2023-05-10T08:56:42;1.33;;;1.23;;
9418;SDS011;4748;50.802;7.132;2023-05-10T08:59:07;1.43;;;1.10;;
9418;SDS011;4748;50.802;7.132;2023-05-10T09:01:33;2.50;;;1.00;;
9418;SDS011;4748;50.802;7.132;2023-05-10T09:04:00;2.43;;;1.00;;
9418;SDS011;4748;50.802;7.132;2023-05-10T09:06:25;6.27;;;0.87;;
9418;SDS011;4748;50.802;7.132;2023-05-10T09:08:51;0.47;;;0.47;;
9418;SDS011;4748;50.802;7.132;2023-05-10T09:11:17;0.60;;;0.50;;
9418;SDS011;4748;50.802;7.132;2023-05-10T09:13:42;0.50;;;0.50;;
9418;SDS011;4748;50.802;7.132;2023-05-10T09:16:09;2.37;;;0.30;;
9418;SDS011;4748;50.802;7.132;2023-05-10T09:18:34;2.63;;;0.30;;
9418;SDS011;4748;50.802;7.132;2023-05-10T09:20:59;0.13;;;0.13;;
9418;SDS011;4748;50.802;7.132;2023-05-10T09:23:25;0.20;;;0.20;;
9418;SDS011;4748;50.802;7.132;2023-05-10T09:26:03;0.33;;;0.20;;
9418;SDS011;4748;50.802;7.132;2023-05-10T09:28:31;0.20;;;0.20;;
9418;SDS011;4748;50.802;7.132;2023-05-10T09:30:58;0.30;;;0.30;;
9418;SDS011;4748;50.802;7.132;2023-05-10T09:33:23;2.13;;;0.10;;
9418;SDS011;4748;50.802;7.132;2023-05-10T09:35:49;0.20;;;0.20;;
9418;SDS011;4748;50.802;7.132;2023-05-10T09:38:17;2.67;;;0.33;;
9418;SDS011;4748;50.802;7.132;2023-05-10T09:40:42;0.10;;;0.10;;
9418;SDS011;4748;50.802;7.132;2023-05-10T09:43:19;0.30;;;0.30;;
9418;SDS011;4748;50.802;7.132;2023-05-10T09:45:45;0.20;;;0.20;;
9418;SDS011;4748;50.802;7.132;2023-05-10T09:48:13;0.20;;;0.20;;
9418;SDS011;4748;50.802;7.132;2023-05-10T09:50:39;0.30;;;0.30;;
9418;SDS011;4748;50.802;7.132;2023-05-10T09:53:05;0.20;;;0.20;;
9418;SDS011;4748;50.802;7.132;2023-05-10T09:55:44;0.60;;;0.50;;
9418;SDS011;4748;50.802;7.132;2023-05-10T09:58:12;0.30;;;0.30;;
9418;SDS011;4748;50.802;7.132;2023-05-10T10:00:39;0.47;;;0.30;;
9418;SDS011;4748;50.802;7.132;2023-05-10T10:03:06;0.40;;;0.40;;
9418;SDS011;4748;50.802;7.132;2023-05-10T10:05:39;0.93;;;0.37;;
9418;SDS011;4748;50.802;7.132;2023-05-10T10:08:06;5.30;;;0.83;;
9418;SDS011;4748;50.802;7.132;2023-05-10T10:10:32;0.87;;;0.60;;
9418;SDS011;4748;50.802;7.132;2023-05-10T10:12:58;1.10;;;0.80;;
9418;SDS011;4748;50.802;7.132;2023-05-10T10:15:24;1.80;;;1.50;;
9418;SDS011;4748;50.802;7.132;2023-05-10T10:17:51;1.93;;;1.73;;
9418;SDS011;4748;50.802;7.132;2023-05-10T10:20:17;1.63;;;1.37;;
9418;SDS011;4748;50.802;7.132;2023-05-10T10:22:44;2.63;;;1.80;;
9418;SDS011;4748;50.802;7.132;2023-05-10T10:25:11;2.20;;;1.60;;
9418;SDS011;4748;50.802;7.132;2023-05-10T10:33:01;3.10;;;2.50;;
9418;SDS011;4748;50.802;7.132;2023-05-10T10:35:24;2.53;;;1.73;;
9418;SDS011;4748;50.802;7.132;2023-05-10T10:37:50;4.27;;;2.77;;
9418;SDS011;4748;50.802;7.132;2023-05-10T10:40:25;5.10;;;2.37;;
9418;SDS011;4748;50.802;7.132;2023-05-10T10:42:52;4.07;;;2.10;;
9418;SDS011;4748;50.802;7.132;2023-05-10T10:45:18;3.03;;;2.23;;
9418;SDS011;4748;50.802;7.132;2023-05-10T10:47:45;4.00;;;2.43;;
9418;SDS011;4748;50.802;7.132;2023-05-10T10:50:10;3.30;;;2.70;;
9418;SDS011;4748;50.802;7.132;2023-05-10T10:57:49;5.50;;;2.70;;
9418;SDS011;4748;50.802;7.132;2023-05-10T11:03:06;4.23;;;1.93;;
9418;SDS011;4748;50.802;7.132;2023-05-10T11:13:34;1.07;;;0.97;;
9418;SDS011;4748;50.802;7.132;2023-05-10T11:16:24;0.50;;;0.50;;
9418;SDS011;4748;50.802;7.132;2023-05-10T11:19:03;0.73;;;0.67;;
9418;SDS011;4748;50.802;7.132;2023-05-10T11:21:33;0.87;;;0.87;;
9418;SDS011;4748;50.802;7.132;2023-05-10T11:24:00;0.43;;;0.40;;
9418;SDS011;4748;50.802;7.132;2023-05-10T11:26:31;0.63;;;0.57;;
9418;SDS011;4748;50.802;7.132;2023-05-10T11:28:58;0.60;;;0.60;;
9418;SDS011;4748;50.802;7.132;2023-05-10T11:31:25;1.17;;;0.53;;
9418;SDS011;4748;50.802;7.132;2023-05-10T11:33:55;0.30;;;0.30;;
9418;SDS011;4748;50.802;7.132;2023-05-10T11:36:23;0.67;;;0.47;;
9418;SDS011;4748;50.802;7.132;2023-05-10T11:38:50;0.40;;;0.40;;
9418;SDS011;4748;50.802;7.132;2023-05-10T11:41:17;0.67;;;0.50;;
9418;SDS011;4748;50.802;7.132;2023-05-10T11:43:45;4.77;;;0.50;;
9418;SDS011;4748;50.802;7.132;2023-05-10T11:46:12;0.50;;;0.50;;
9418;SDS011;4748;50.802;7.132;2023-05-10T11:48:38;0.52;;;0.52;;
9418;SDS011;4748;50.802;7.132;2023-05-10T11:51:05;0.40;;;0.40;;
9418;SDS011;4748;50.802;7.132;2023-05-10T11:53:32;0.32;;;0.32;;
9418;SDS011;4748;50.802;7.132;2023-05-10T11:56:07;0.38;;;0.30;;
9418;SDS011;4748;50.802;7.132;2023-05-10T11:58:34;5.82;;;0.30;;
9418;SDS011;4748;50.802;7.132;2023-05-10T12:01:01;1.02;;;0.55;;
9418;SDS011;4748;50.802;7.132;2023-05-10T12:03:27;0.38;;;0.38;;
9418;SDS011;4748;50.802;7.132;2023-05-10T12:05:54;0.80;;;0.60;;
9418;SDS011;4748;50.802;7.132;2023-05-10T12:08:21;0.50;;;0.50;;
9418;SDS011;4748;50.802;7.132;2023-05-10T12:10:51;1.67;;;0.68;;
9418;SDS011;4748;50.802;7.132;2023-05-10T12:13:17;0.50;;;0.50;;
9418;SDS011;4748;50.802;7.132;2023-05-10T12:15:43;0.63;;;0.63;;
9418;SDS011;4748;50.802;7.132;2023-05-10T12:18:09;0.47;;;0.40;;
9418;SDS011;4748;50.802;7.132;2023-05-10T12:20:36;0.40;;;0.40;;
9418;SDS011;4748;50.802;7.132;2023-05-10T12:23:02;1.05;;;0.20;;
9418;SDS011;4748;50.802;7.132;2023-05-10T12:25:32;0.30;;;0.30;;
9418;SDS011;4748;50.802;7.132;2023-05-10T12:27:59;0.40;;;0.40;;
9418;SDS011;4748;50.802;7.132;2023-05-10T12:30:28;0.77;;;0.73;;
9418;SDS011;4748;50.802;7.132;2023-05-10T12:33:13;0.60;;;0.60;;
9418;SDS011;4748;50.802;7.132;2023-05-10T12:35:48;6.22;;;0.60;;
9418;SDS011;4748;50.802;7.132;2023-05-10T12:40:59;0.60;;;0.60;;
9418;SDS011;4748;50.802;7.132;2023-05-10T12:43:27;0.50;;;0.50;;
9418;SDS011;4748;50.802;7.132;2023-05-10T12:45:53;0.47;;;0.47;;
9418;SDS011;4748;50.802;7.132;2023-05-10T12:48:18;0.50;;;0.50;;
9418;SDS011;4748;50.802;7.132;2023-05-10T12:50:45;0.30;;;0.30;;
9418;SDS011;4748;50.802;7.132;2023-05-10T12:53:10;0.40;;;0.40;;
9418;SDS011;4748;50.802;7.132;2023-05-10T12:55:36;0.30;;;0.30;;
9418;SDS011;4748;50.802;7.132;2023-05-10T12:58:01;0.40;;;0.40;;
9418;SDS011;4748;50.802;7.132;2023-05-10T13:00:26;0.63;;;0.63;;
9418;SDS011;4748;50.802;7.132;2023-05-10T13:02:52;0.50;;;0.50;;
9418;SDS011;4748;50.802;7.132;2023-05-10T13:05:18;0.77;;;0.50;;
9418;SDS011;4748;50.802;7.132;2023-05-10T13:07:43;0.73;;;0.40;;
9418;SDS011;4748;50.802;7.132;2023-05-10T13:10:09;0.40;;;0.40;;
9418;SDS011;4748;50.802;7.132;2023-05-10T13:12:35;0.55;;;0.45;;
9418;SDS011;4748;50.802;7.132;2023-05-10T13:15:01;0.70;;;0.60;;
9418;SDS011;4748;50.802;7.132;2023-05-10T13:17:28;1.60;;;0.47;;
9418;SDS011;4748;50.802;7.132;2023-05-10T13:19:53;2.55;;;0.50;;
9418;SDS011;4748;50.802;7.132;2023-05-10T13:22:19;1.50;;;0.60;;
9418;SDS011;4748;50.802;7.132;2023-05-10T13:24:44;0.40;;;0.40;;
9418;SDS011;4748;50.802;7.132;2023-05-10T13:27:10;1.33;;;0.70;;
9418;SDS011;4748;50.802;7.132;2023-05-10T13:29:35;0.55;;;0.55;;
9418;SDS011;4748;50.802;7.132;2023-05-10T13:32:01;0.75;;;0.75;;
9418;SDS011;4748;50.802;7.132;2023-05-10T13:34:27;0.40;;;0.40;;
9418;SDS011;4748;50.802;7.132;2023-05-10T13:36:52;0.50;;;0.50;;
9418;SDS011;4748;50.802;7.132;2023-05-10T13:39:18;0.30;;;0.30;;
9418;SDS011;4748;50.802;7.132;2023-05-10T13:41:44;0.60;;;0.30;;
9418;SDS011;4748;50.802;7.132;2023-05-10T13:44:11;0.30;;;0.30;;
9418;SDS011;4748;50.802;7.132;2023-05-10T13:46:38;0.40;;;0.40;;
9418;SDS011;4748;50.802;7.132;2023-05-10T13:49:03;0.37;;;0.37;;
9418;SDS011;4748;50.802;7.132;2023-05-10T13:51:29;2.75;;;0.40;;
9418;SDS011;4748;50.802;7.132;2023-05-10T13:53:56;0.70;;;0.35;;
9418;SDS011;4748;50.802;7.132;2023-05-10T13:56:22;0.30;;;0.30;;
9418;SDS011;4748;50.802;7.132;2023-05-10T13:58:47;0.40;;;0.40;;
9418;SDS011;4748;50.802;7.132;2023-05-10T14:01:12;0.20;;;0.20;;
9418;SDS011;4748;50.802;7.132;2023-05-10T14:03:38;1.23;;;0.20;;
9418;SDS011;4748;50.802;7.132;2023-05-10T14:06:03;0.23;;;0.23;;
9418;SDS011;4748;50.802;7.132;2023-05-10T14:08:29;0.40;;;0.40;;
9418;SDS011;4748;50.802;7.132;2023-05-10T14:10:54;0.23;;;0.23;;
9418;SDS011;4748;50.802;7.132;2023-05-10T14:13:21;0.33;;;0.33;;
9418;SDS011;4748;50.802;7.132;2023-05-10T14:15:46;2.70;;;0.30;;
9418;SDS011;4748;50.802;7.132;2023-05-10T14:18:12;0.30;;;0.30;;
9418;SDS011;4748;50.802;7.132;2023-05-10T14:20:37;1.45;;;0.30;;
9418;SDS011;4748;50.802;7.132;2023-05-10T14:23:03;0.52;;;0.40;;
9418;SDS011;4748;50.802;7.132;2023-05-10T14:25:28;0.37;;;0.37;;
9418;SDS011;4748;50.802;7.132;2023-05-10T14:27:54;0.20;;;0.20;;
9418;SDS011;4748;50.802;7.132;2023-05-10T14:30:19;1.30;;;0.30;;
9418;SDS011;4748;50.802;7.132;2023-05-10T14:32:45;5.17;;;0.57;;
9418;SDS011;4748;50.802;7.132;2023-05-10T14:35:11;0.55;;;0.20;;
9418;SDS011;4748;50.802;7.132;2023-05-10T14:37:37;2.47;;;0.33;;
9418;SDS011;4748;50.802;7.132;2023-05-10T14:40:03;0.30;;;0.30;;
9418;SDS011;4748;50.802;7.132;2023-05-10T14:42:29;0.97;;;0.30;;
9418;SDS011;4748;50.802;7.132;2023-05-10T14:44:56;0.60;;;0.30;;
9418;SDS011;4748;50.802;7.132;2023-05-10T14:47:21;1.47;;;0.43;;
9418;SDS011;4748;50.802;7.132;2023-05-10T14:49:46;0.37;;;0.37;;
9418;SDS011;4748;50.802;7.132;2023-05-10T14:52:12;0.88;;;0.50;;
9418;SDS011;4748;50.802;7.132;2023-05-10T14:54:39;0.40;;;0.40;;
9418;SDS011;4748;50.802;7.132;2023-05-10T14:57:05;0.30;;;0.30;;
9418;SDS011;4748;50.802;7.132;2023-05-10T14:59:31;1.75;;;0.20;;
9418;SDS011;4748;50.802;7.132;2023-05-10T15:01:56;0.30;;;0.30;;
9418;SDS011;4748;50.802;7.132;2023-05-10T15:04:22;0.50;;;0.50;;
9418;SDS011;4748;50.802;7.132;2023-05-10T15:06:47;0.50;;;0.50;;
9418;SDS011;4748;50.802;7.132;2023-05-10T15:09:13;2.75;;;0.77;;
9418;SDS011;4748;50.802;7.132;2023-05-10T15:11:38;0.30;;;0.30;;
9418;SDS011;4748;50.802;7.132;2023-05-10T15:14:04;0.50;;;0.50;;
9418;SDS011;4748;50.802;7.132;2023-05-10T15:16:29;0.47;;;0.47;;
9418;SDS011;4748;50.802;7.132;2023-05-10T15:18:55;1.52;;;0.57;;
9418;SDS011;4748;50.802;7.132;2023-05-10T15:21:20;0.30;;;0.30;;
9418;SDS011;4748;50.802;7.132;2023-05-10T15:23:46;0.63;;;0.60;;
9418;SDS011;4748;50.802;7.132;2023-05-10T15:26:11;0.65;;;0.35;;
9418;SDS011;4748;50.802;7.132;2023-05-10T15:28:37;0.30;;;0.30;;
9418;SDS011;4748;50.802;7.132;2023-05-10T15:31:02;0.47;;;0.47;;
9418;SDS011;4748;50.802;7.132;2023-05-10T15:33:28;0.50;;;0.40;;
9418;SDS011;4748;50.802;7.132;2023-05-10T15:35:53;0.60;;;0.60;;
9418;SDS011;4748;50.802;7.132;2023-05-10T15:38:19;0.63;;;0.40;;
9418;SDS011;4748;50.802;7.132;2023-05-10T15:40:44;0.63;;;0.40;;
9418;SDS011;4748;50.802;7.132;2023-05-10T15:43:10;0.30;;;0.30;;
9418;SDS011;4748;50.802;7.132;2023-05-10T15:45:35;0.45;;;0.30;;
9418;SDS011;4748;50.802;7.132;2023-05-10T15:48:01;0.63;;;0.50;;
9418;SDS011;4748;50.802;7.132;2023-05-10T15:50:26;0.28;;;0.28;;
9418;SDS011;4748;50.802;7.132;2023-05-10T15:52:52;3.45;;;0.50;;
9418;SDS011;4748;50.802;7.132;2023-05-10T15:55:18;3.22;;;0.40;;
9418;SDS011;4748;50.802;7.132;2023-05-10T15:57:43;0.30;;;0.30;;
9418;SDS011;4748;50.802;7.132;2023-05-10T16:00:10;0.50;;;0.35;;
9418;SDS011;4748;50.802;7.132;2023-05-10T16:02:36;0.70;;;0.40;;
9418;SDS011;4748;50.802;7.132;2023-05-10T16:05:03;0.50;;;0.50;;
9418;SDS011;4748;50.802;7.132;2023-05-10T16:07:28;1.30;;;0.50;;
9418;SDS011;4748;50.802;7.132;2023-05-10T16:09:54;0.55;;;0.40;;
9418;SDS011;4748;50.802;7.132;2023-05-10T16:12:19;1.30;;;0.45;;
9418;SDS011;4748;50.802;7.132;2023-05-10T16:14:45;1.25;;;0.60;;